sensor_id;sensor_type;location;lat;lon;timestamp;P1;durP1;ratioP1;P2;durP2;ratioP2
25731;SDS011;13585;50.864;4.406;2023-07-29T00:01:15;3.13;;;1.50;;
25731;SDS011;13585;50.864;4.406;2023-07-29T00:03:41;2.55;;;1.50;;
25731;SDS011;13585;50.864;4.406;2023-07-29T00:06:07;1.52;;;1.30;;
25731;SDS011;13585;50.864;4.406;2023-07-29T00:08:32;1.48;;;1.38;;
25731;SDS011;13585;50.864;4.406;2023-07-29T00:10:58;1.73;;;1.40;;
25731;SDS011;13585;50.864;4.406;2023-07-29T00:13:23;1.35;;;1.23;;
25731;SDS011;13585;50.864;4.406;2023-07-29T00:15:49;1.88;;;1.40;;
25731;SDS011;13585;50.864;4.406;2023-07-29T00:18:15;1.45;;;1.35;;
25731;SDS011;13585;50.864;4.406;2023-07-29T00:20:40;1.20;;;1.10;;
25731;SDS011;13585;50.864;4.406;2023-07-29T00:23:06;1.80;;;1.10;;
25731;SDS011;13585;50.864;4.406;2023-07-29T00:25:31;1.50;;;1.20;;
25731;SDS011;13585;50.864;4.406;2023-07-29T00:27:58;1.50;;;1.33;;
25731;SDS011;13585;50.864;4.406;2023-07-29T00:30:24;1.20;;;1.10;;
25731;SDS011;13585;50.864;4.406;2023-07-29T00:32:49;1.58;;;1.48;;
25731;SDS011;13585;50.864;4.406;2023-07-29T00:35:15;1.55;;;1.30;;
25731;SDS011;13585;50.864;4.406;2023-07-29T00:37:40;1.30;;;1.20;;
25731;SDS011;13585;50.864;4.406;2023-07-29T00:40:11;1.65;;;1.10;;
25731;SDS011;13585;50.864;4.406;2023-07-29T00:42:41;1.30;;;1.20;;
25731;SDS011;13585;50.864;4.406;2023-07-29T00:45:08;1.40;;;1.30;;
25731;SDS011;13585;50.864;4.406;2023-07-29T00:47:34;1.40;;;1.20;;
25731;SDS011;13585;50.864;4.406;2023-07-29T00:50:00;1.45;;;1.30;;
25731;SDS011;13585;50.864;4.406;2023-07-29T00:52:26;1.67;;;1.27;;
25731;SDS011;13585;50.864;4.406;2023-07-29T00:54:51;2.13;;;1.30;;
25731;SDS011;13585;50.864;4.406;2023-07-29T00:57:17;1.20;;;1.10;;
25731;SDS011;13585;50.864;4.406;2023-07-29T00:59:44;1.98;;;1.27;;
25731;SDS011;13585;50.864;4.406;2023-07-29T01:02:10;1.40;;;1.30;;
25731;SDS011;13585;50.864;4.406;2023-07-29T01:04:35;1.25;;;1.15;;
25731;SDS011;13585;50.864;4.406;2023-07-29T01:09:52;1.40;;;1.30;;
25731;SDS011;13585;50.864;4.406;2023-07-29T01:12:34;2.20;;;1.33;;
25731;SDS011;13585;50.864;4.406;2023-07-29T01:15:15;1.30;;;1.13;;
25731;SDS011;13585;50.864;4.406;2023-07-29T01:17:54;1.98;;;1.40;;
25731;SDS011;13585;50.864;4.406;2023-07-29T01:20:23;2.33;;;1.42;;
25731;SDS011;13585;50.864;4.406;2023-07-29T01:22:50;1.52;;;1.23;;
25731;SDS011;13585;50.864;4.406;2023-07-29T01:25:16;1.83;;;1.42;;
25731;SDS011;13585;50.864;4.406;2023-07-29T01:27:42;1.58;;;1.48;;
25731;SDS011;13585;50.864;4.406;2023-07-29T01:30:09;1.60;;;1.27;;
25731;SDS011;13585;50.864;4.406;2023-07-29T01:32:37;1.92;;;1.23;;
25731;SDS011;13585;50.864;4.406;2023-07-29T01:35:23;2.13;;;1.45;;
25731;SDS011;13585;50.864;4.406;2023-07-29T01:37:57;1.55;;;1.35;;
25731;SDS011;13585;50.864;4.406;2023-07-29T01:40:30;1.58;;;1.30;;
25731;SDS011;13585;50.864;4.406;2023-07-29T01:42:57;1.20;;;1.08;;
25731;SDS011;13585;50.864;4.406;2023-07-29T01:45:23;1.33;;;1.20;;
25731;SDS011;13585;50.864;4.406;2023-07-29T01:47:50;1.30;;;1.20;;
25731;SDS011;13585;50.864;4.406;2023-07-29T01:50:16;1.90;;;1.10;;
25731;SDS011;13585;50.864;4.406;2023-07-29T01:52:42;1.50;;;1.40;;
25731;SDS011;13585;50.864;4.406;2023-07-29T01:55:08;2.97;;;1.60;;
25731;SDS011;13585;50.864;4.406;2023-07-29T01:57:33;3.50;;;1.20;;
25731;SDS011;13585;50.864;4.406;2023-07-29T01:59:59;1.33;;;1.23;;
25731;SDS011;13585;50.864;4.406;2023-07-29T02:02:25;1.80;;;1.40;;
25731;SDS011;13585;50.864;4.406;2023-07-29T02:04:50;1.52;;;1.17;;
25731;SDS011;13585;50.864;4.406;2023-07-29T02:07:18;1.30;;;1.20;;
25731;SDS011;13585;50.864;4.406;2023-07-29T02:09:44;1.63;;;1.40;;
25731;SDS011;13585;50.864;4.406;2023-07-29T02:12:10;2.35;;;1.25;;
25731;SDS011;13585;50.864;4.406;2023-07-29T02:14:35;1.30;;;1.10;;
25731;SDS011;13585;50.864;4.406;2023-07-29T02:17:01;1.40;;;1.30;;
25731;SDS011;13585;50.864;4.406;2023-07-29T02:19:26;1.88;;;1.45;;
25731;SDS011;13585;50.864;4.406;2023-07-29T02:21:52;1.90;;;1.35;;
25731;SDS011;13585;50.864;4.406;2023-07-29T02:24:18;1.65;;;1.30;;
25731;SDS011;13585;50.864;4.406;2023-07-29T02:26:43;1.45;;;1.35;;
25731;SDS011;13585;50.864;4.406;2023-07-29T02:29:09;2.78;;;1.40;;
25731;SDS011;13585;50.864;4.406;2023-07-29T02:31:34;1.80;;;1.40;;
25731;SDS011;13585;50.864;4.406;2023-07-29T02:34:02;1.23;;;1.13;;
25731;SDS011;13585;50.864;4.406;2023-07-29T02:36:28;1.45;;;1.13;;
25731;SDS011;13585;50.864;4.406;2023-07-29T02:38:53;1.58;;;1.38;;
25731;SDS011;13585;50.864;4.406;2023-07-29T02:41:19;1.35;;;1.10;;
25731;SDS011;13585;50.864;4.406;2023-07-29T02:43:48;1.30;;;1.17;;
25731;SDS011;13585;50.864;4.406;2023-07-29T02:46:14;1.42;;;1.15;;
25731;SDS011;13585;50.864;4.406;2023-07-29T02:48:40;1.67;;;1.30;;
25731;SDS011;13585;50.864;4.406;2023-07-29T02:51:06;1.20;;;1.10;;
25731;SDS011;13585;50.864;4.406;2023-07-29T02:53:32;1.50;;;1.23;;
25731;SDS011;13585;50.864;4.406;2023-07-29T02:55:57;1.60;;;1.40;;
25731;SDS011;13585;50.864;4.406;2023-07-29T02:58:23;1.75;;;1.30;;
25731;SDS011;13585;50.864;4.406;2023-07-29T03:00:51;4.13;;;1.35;;
25731;SDS011;13585;50.864;4.406;2023-07-29T03:03:17;1.75;;;1.05;;
25731;SDS011;13585;50.864;4.406;2023-07-29T03:05:43;1.10;;;1.00;;
25731;SDS011;13585;50.864;4.406;2023-07-29T03:08:09;2.35;;;1.17;;
25731;SDS011;13585;50.864;4.406;2023-07-29T03:10:35;1.45;;;1.08;;
25731;SDS011;13585;50.864;4.406;2023-07-29T03:13:03;1.42;;;1.20;;
25731;SDS011;13585;50.864;4.406;2023-07-29T03:15:29;2.70;;;1.25;;
25731;SDS011;13585;50.864;4.406;2023-07-29T03:17:54;1.63;;;1.25;;
25731;SDS011;13585;50.864;4.406;2023-07-29T03:20:20;1.27;;;1.17;;
25731;SDS011;13585;50.864;4.406;2023-07-29T03:22:46;1.25;;;1.15;;
25731;SDS011;13585;50.864;4.406;2023-07-29T03:25:11;1.80;;;1.30;;
25731;SDS011;13585;50.864;4.406;2023-07-29T03:27:37;1.67;;;1.45;;
25731;SDS011;13585;50.864;4.406;2023-07-29T03:30:04;1.55;;;1.20;;
25731;SDS011;13585;50.864;4.406;2023-07-29T03:32:32;1.10;;;1.00;;
25731;SDS011;13585;50.864;4.406;2023-07-29T03:34:58;1.20;;;1.10;;
25731;SDS011;13585;50.864;4.406;2023-07-29T03:37:23;3.05;;;1.50;;
25731;SDS011;13585;50.864;4.406;2023-07-29T03:39:49;1.30;;;1.20;;
25731;SDS011;13585;50.864;4.406;2023-07-29T03:42:17;1.30;;;1.20;;
25731;SDS011;13585;50.864;4.406;2023-07-29T03:44:43;1.38;;;1.00;;
25731;SDS011;13585;50.864;4.406;2023-07-29T03:47:08;1.50;;;1.20;;
25731;SDS011;13585;50.864;4.406;2023-07-29T03:49:34;1.30;;;1.10;;
25731;SDS011;13585;50.864;4.406;2023-07-29T03:51:59;1.25;;;0.90;;
25731;SDS011;13585;50.864;4.406;2023-07-29T03:54:25;1.45;;;1.02;;
25731;SDS011;13585;50.864;4.406;2023-07-29T03:56:51;2.25;;;1.17;;
25731;SDS011;13585;50.864;4.406;2023-07-29T03:59:16;1.30;;;0.90;;
25731;SDS011;13585;50.864;4.406;2023-07-29T04:01:42;1.23;;;1.13;;
25731;SDS011;13585;50.864;4.406;2023-07-29T04:04:08;1.35;;;1.25;;
25731;SDS011;13585;50.864;4.406;2023-07-29T04:06:33;4.00;;;1.17;;
25731;SDS011;13585;50.864;4.406;2023-07-29T04:08:59;2.03;;;1.15;;
25731;SDS011;13585;50.864;4.406;2023-07-29T04:11:25;1.67;;;1.40;;
25731;SDS011;13585;50.864;4.406;2023-07-29T04:13:51;1.33;;;1.23;;
25731;SDS011;13585;50.864;4.406;2023-07-29T04:16:16;1.27;;;1.13;;
25731;SDS011;13585;50.864;4.406;2023-07-29T04:18:42;1.88;;;1.00;;
25731;SDS011;13585;50.864;4.406;2023-07-29T04:21:08;1.85;;;1.35;;
25731;SDS011;13585;50.864;4.406;2023-07-29T04:23:34;1.48;;;1.30;;
25731;SDS011;13585;50.864;4.406;2023-07-29T04:26:00;1.52;;;1.10;;
25731;SDS011;13585;50.864;4.406;2023-07-29T04:28:25;2.10;;;1.40;;
25731;SDS011;13585;50.864;4.406;2023-07-29T04:30:51;1.10;;;1.00;;
25731;SDS011;13585;50.864;4.406;2023-07-29T04:33:17;1.98;;;1.17;;
25731;SDS011;13585;50.864;4.406;2023-07-29T04:35:42;2.05;;;1.40;;
25731;SDS011;13585;50.864;4.406;2023-07-29T04:38:08;1.23;;;1.10;;
25731;SDS011;13585;50.864;4.406;2023-07-29T04:40:33;1.42;;;1.20;;
25731;SDS011;13585;50.864;4.406;2023-07-29T04:43:02;1.48;;;1.38;;
25731;SDS011;13585;50.864;4.406;2023-07-29T04:45:28;1.77;;;1.20;;
25731;SDS011;13585;50.864;4.406;2023-07-29T04:47:54;1.10;;;0.98;;
25731;SDS011;13585;50.864;4.406;2023-07-29T04:50:20;1.10;;;0.98;;
25731;SDS011;13585;50.864;4.406;2023-07-29T04:52:46;1.30;;;1.20;;
25731;SDS011;13585;50.864;4.406;2023-07-29T04:55:11;1.90;;;1.30;;
25731;SDS011;13585;50.864;4.406;2023-07-29T04:57:37;1.48;;;1.38;;
25731;SDS011;13585;50.864;4.406;2023-07-29T05:00:03;1.10;;;1.00;;
25731;SDS011;13585;50.864;4.406;2023-07-29T05:02:28;0.93;;;0.90;;
25731;SDS011;13585;50.864;4.406;2023-07-29T05:04:54;1.40;;;1.08;;
25731;SDS011;13585;50.864;4.406;2023-07-29T05:07:20;1.98;;;1.20;;
25731;SDS011;13585;50.864;4.406;2023-07-29T05:09:45;1.33;;;1.23;;
25731;SDS011;13585;50.864;4.406;2023-07-29T05:12:12;1.55;;;1.13;;
25731;SDS011;13585;50.864;4.406;2023-07-29T05:14:37;1.60;;;1.10;;
25731;SDS011;13585;50.864;4.406;2023-07-29T05:17:03;1.33;;;1.20;;
25731;SDS011;13585;50.864;4.406;2023-07-29T05:19:29;2.35;;;1.50;;
25731;SDS011;13585;50.864;4.406;2023-07-29T05:21:55;1.35;;;1.13;;
25731;SDS011;13585;50.864;4.406;2023-07-29T05:24:21;1.17;;;1.00;;
25731;SDS011;13585;50.864;4.406;2023-07-29T05:26:47;2.08;;;1.40;;
25731;SDS011;13585;50.864;4.406;2023-07-29T05:29:13;1.17;;;1.08;;
25731;SDS011;13585;50.864;4.406;2023-07-29T05:31:39;1.27;;;1.15;;
25731;SDS011;13585;50.864;4.406;2023-07-29T05:34:05;1.30;;;1.10;;
25731;SDS011;13585;50.864;4.406;2023-07-29T05:36:30;1.23;;;1.10;;
25731;SDS011;13585;50.864;4.406;2023-07-29T05:38:56;1.00;;;0.90;;
25731;SDS011;13585;50.864;4.406;2023-07-29T05:41:22;1.30;;;1.10;;
25731;SDS011;13585;50.864;4.406;2023-07-29T05:43:47;1.40;;;1.30;;
25731;SDS011;13585;50.864;4.406;2023-07-29T05:46:13;1.23;;;1.10;;
25731;SDS011;13585;50.864;4.406;2023-07-29T05:48:38;1.25;;;1.15;;
25731;SDS011;13585;50.864;4.406;2023-07-29T05:51:04;1.17;;;1.10;;
25731;SDS011;13585;50.864;4.406;2023-07-29T05:53:30;1.75;;;1.30;;
25731;SDS011;13585;50.864;4.406;2023-07-29T05:55:56;1.42;;;1.13;;
25731;SDS011;13585;50.864;4.406;2023-07-29T05:58:22;1.17;;;1.08;;
25731;SDS011;13585;50.864;4.406;2023-07-29T06:00:47;1.33;;;0.93;;
25731;SDS011;13585;50.864;4.406;2023-07-29T06:03:13;1.23;;;0.98;;
25731;SDS011;13585;50.864;4.406;2023-07-29T06:05:39;1.67;;;1.02;;
25731;SDS011;13585;50.864;4.406;2023-07-29T06:08:05;1.77;;;1.20;;
25731;SDS011;13585;50.864;4.406;2023-07-29T06:10:32;1.20;;;1.10;;
25731;SDS011;13585;50.864;4.406;2023-07-29T06:12:57;1.30;;;1.17;;
25731;SDS011;13585;50.864;4.406;2023-07-29T06:15:23;1.17;;;1.08;;
25731;SDS011;13585;50.864;4.406;2023-07-29T06:17:49;1.35;;;1.10;;
25731;SDS011;13585;50.864;4.406;2023-07-29T06:20:14;1.40;;;1.00;;
25731;SDS011;13585;50.864;4.406;2023-07-29T06:22:40;1.38;;;1.08;;
25731;SDS011;13585;50.864;4.406;2023-07-29T06:25:06;1.13;;;1.02;;
25731;SDS011;13585;50.864;4.406;2023-07-29T06:27:32;0.80;;;0.80;;
25731;SDS011;13585;50.864;4.406;2023-07-29T06:29:58;1.33;;;0.93;;
25731;SDS011;13585;50.864;4.406;2023-07-29T06:32:23;1.30;;;1.20;;
25731;SDS011;13585;50.864;4.406;2023-07-29T06:34:49;1.10;;;1.00;;
25731;SDS011;13585;50.864;4.406;2023-07-29T06:37:16;1.38;;;1.20;;
25731;SDS011;13585;50.864;4.406;2023-07-29T06:39:42;1.33;;;1.02;;
25731;SDS011;13585;50.864;4.406;2023-07-29T06:42:08;0.80;;;0.80;;
25731;SDS011;13585;50.864;4.406;2023-07-29T06:44:33;1.10;;;1.00;;
25731;SDS011;13585;50.864;4.406;2023-07-29T06:46:59;1.45;;;1.13;;
25731;SDS011;13585;50.864;4.406;2023-07-29T06:49:24;1.30;;;1.20;;
25731;SDS011;13585;50.864;4.406;2023-07-29T06:51:50;1.08;;;0.98;;
25731;SDS011;13585;50.864;4.406;2023-07-29T06:54:16;1.23;;;1.00;;
25731;SDS011;13585;50.864;4.406;2023-07-29T06:56:42;1.13;;;1.02;;
25731;SDS011;13585;50.864;4.406;2023-07-29T06:59:08;1.27;;;1.02;;
25731;SDS011;13585;50.864;4.406;2023-07-29T07:01:34;1.13;;;1.02;;
25731;SDS011;13585;50.864;4.406;2023-07-29T07:03:59;1.65;;;1.10;;
25731;SDS011;13585;50.864;4.406;2023-07-29T07:06:25;1.40;;;1.10;;
25731;SDS011;13585;50.864;4.406;2023-07-29T07:08:51;1.60;;;1.00;;
25731;SDS011;13585;50.864;4.406;2023-07-29T07:11:17;1.25;;;0.93;;
25731;SDS011;13585;50.864;4.406;2023-07-29T07:13:43;1.27;;;1.17;;
25731;SDS011;13585;50.864;4.406;2023-07-29T07:16:09;1.17;;;1.08;;
25731;SDS011;13585;50.864;4.406;2023-07-29T07:18:34;1.30;;;1.20;;
25731;SDS011;13585;50.864;4.406;2023-07-29T07:21:00;1.10;;;1.00;;
25731;SDS011;13585;50.864;4.406;2023-07-29T07:23:26;1.30;;;0.93;;
25731;SDS011;13585;50.864;4.406;2023-07-29T07:25:51;2.15;;;1.10;;
25731;SDS011;13585;50.864;4.406;2023-07-29T07:28:17;1.10;;;1.00;;
25731;SDS011;13585;50.864;4.406;2023-07-29T07:30:43;0.90;;;0.90;;
25731;SDS011;13585;50.864;4.406;2023-07-29T07:33:08;1.45;;;0.98;;
25731;SDS011;13585;50.864;4.406;2023-07-29T07:35:34;0.90;;;0.80;;
25731;SDS011;13585;50.864;4.406;2023-07-29T07:38:00;1.00;;;0.80;;
25731;SDS011;13585;50.864;4.406;2023-07-29T07:40:27;1.10;;;1.00;;
25731;SDS011;13585;50.864;4.406;2023-07-29T07:42:53;0.85;;;0.82;;
25731;SDS011;13585;50.864;4.406;2023-07-29T07:45:19;1.10;;;1.00;;
25731;SDS011;13585;50.864;4.406;2023-07-29T07:47:44;0.93;;;0.85;;
25731;SDS011;13585;50.864;4.406;2023-07-29T07:50:10;1.52;;;1.20;;
25731;SDS011;13585;50.864;4.406;2023-07-29T07:52:36;1.27;;;1.15;;
25731;SDS011;13585;50.864;4.406;2023-07-29T07:55:01;1.73;;;1.27;;
25731;SDS011;13585;50.864;4.406;2023-07-29T07:57:27;1.23;;;1.10;;
25731;SDS011;13585;50.864;4.406;2023-07-29T07:59:53;1.00;;;0.90;;
25731;SDS011;13585;50.864;4.406;2023-07-29T08:02:18;1.13;;;1.00;;
25731;SDS011;13585;50.864;4.406;2023-07-29T08:04:45;1.20;;;0.90;;
25731;SDS011;13585;50.864;4.406;2023-07-29T08:07:10;1.10;;;0.90;;
25731;SDS011;13585;50.864;4.406;2023-07-29T08:09:36;1.00;;;0.80;;
25731;SDS011;13585;50.864;4.406;2023-07-29T08:12:02;2.15;;;1.20;;
25731;SDS011;13585;50.864;4.406;2023-07-29T08:14:27;1.02;;;0.88;;
25731;SDS011;13585;50.864;4.406;2023-07-29T08:16:53;1.10;;;1.00;;
25731;SDS011;13585;50.864;4.406;2023-07-29T08:19:19;1.13;;;1.02;;
25731;SDS011;13585;50.864;4.406;2023-07-29T08:21:44;1.30;;;0.82;;
25731;SDS011;13585;50.864;4.406;2023-07-29T08:24:10;1.00;;;0.90;;
25731;SDS011;13585;50.864;4.406;2023-07-29T08:26:35;1.05;;;0.95;;
25731;SDS011;13585;50.864;4.406;2023-07-29T08:29:01;0.80;;;0.80;;
25731;SDS011;13585;50.864;4.406;2023-07-29T08:31:27;1.10;;;1.00;;
25731;SDS011;13585;50.864;4.406;2023-07-29T08:33:53;1.00;;;0.90;;
25731;SDS011;13585;50.864;4.406;2023-07-29T08:36:18;1.30;;;1.10;;
25731;SDS011;13585;50.864;4.406;2023-07-29T08:38:44;1.20;;;1.10;;
25731;SDS011;13585;50.864;4.406;2023-07-29T08:43:56;1.10;;;1.00;;
25731;SDS011;13585;50.864;4.406;2023-07-29T08:46:45;2.47;;;0.90;;
25731;SDS011;13585;50.864;4.406;2023-07-29T08:49:11;1.00;;;0.90;;
25731;SDS011;13585;50.864;4.406;2023-07-29T08:51:42;1.35;;;0.88;;
25731;SDS011;13585;50.864;4.406;2023-07-29T08:54:09;1.88;;;1.00;;
25731;SDS011;13585;50.864;4.406;2023-07-29T08:56:35;1.20;;;1.05;;
25731;SDS011;13585;50.864;4.406;2023-07-29T08:59:02;1.52;;;0.90;;
25731;SDS011;13585;50.864;4.406;2023-07-29T09:01:29;2.58;;;0.98;;
25731;SDS011;13585;50.864;4.406;2023-07-29T09:03:55;1.10;;;0.93;;
25731;SDS011;13585;50.864;4.406;2023-07-29T09:06:21;1.10;;;0.90;;
25731;SDS011;13585;50.864;4.406;2023-07-29T09:08:49;1.15;;;1.00;;
25731;SDS011;13585;50.864;4.406;2023-07-29T09:11:16;1.05;;;0.90;;
25731;SDS011;13585;50.864;4.406;2023-07-29T09:13:42;1.00;;;0.90;;
25731;SDS011;13585;50.864;4.406;2023-07-29T09:16:08;1.13;;;0.98;;
25731;SDS011;13585;50.864;4.406;2023-07-29T09:18:34;1.08;;;0.98;;
25731;SDS011;13585;50.864;4.406;2023-07-29T09:21:00;0.95;;;0.85;;
25731;SDS011;13585;50.864;4.406;2023-07-29T09:23:26;1.15;;;1.00;;
25731;SDS011;13585;50.864;4.406;2023-07-29T09:26:01;1.83;;;1.10;;
25731;SDS011;13585;50.864;4.406;2023-07-29T09:28:27;1.13;;;1.02;;
25731;SDS011;13585;50.864;4.406;2023-07-29T09:31:01;2.95;;;1.00;;
25731;SDS011;13585;50.864;4.406;2023-07-29T09:33:27;1.65;;;0.93;;
25731;SDS011;13585;50.864;4.406;2023-07-29T09:36:11;1.30;;;1.13;;
25731;SDS011;13585;50.864;4.406;2023-07-29T09:38:37;1.77;;;1.00;;
25731;SDS011;13585;50.864;4.406;2023-07-29T09:41:03;0.98;;;0.90;;
25731;SDS011;13585;50.864;4.406;2023-07-29T09:43:29;1.00;;;0.90;;
25731;SDS011;13585;50.864;4.406;2023-07-29T09:46:03;1.42;;;0.98;;
25731;SDS011;13585;50.864;4.406;2023-07-29T09:48:32;2.92;;;1.00;;
25731;SDS011;13585;50.864;4.406;2023-07-29T09:50:59;1.23;;;1.13;;
25731;SDS011;13585;50.864;4.406;2023-07-29T09:53:24;0.80;;;0.80;;
25731;SDS011;13585;50.864;4.406;2023-07-29T09:55:50;0.88;;;0.82;;
25731;SDS011;13585;50.864;4.406;2023-07-29T09:58:19;1.92;;;0.80;;
25731;SDS011;13585;50.864;4.406;2023-07-29T10:00:52;2.15;;;1.00;;
25731;SDS011;13585;50.864;4.406;2023-07-29T10:03:20;1.35;;;0.98;;
25731;SDS011;13585;50.864;4.406;2023-07-29T10:05:46;1.50;;;0.90;;
25731;SDS011;13585;50.864;4.406;2023-07-29T10:08:13;0.85;;;0.85;;
25731;SDS011;13585;50.864;4.406;2023-07-29T10:10:41;0.93;;;0.90;;
25731;SDS011;13585;50.864;4.406;2023-07-29T10:13:07;1.40;;;1.00;;
25731;SDS011;13585;50.864;4.406;2023-07-29T10:15:34;0.90;;;0.80;;
25731;SDS011;13585;50.864;4.406;2023-07-29T10:18:01;1.75;;;1.17;;
25731;SDS011;13585;50.864;4.406;2023-07-29T10:20:28;1.00;;;0.90;;
25731;SDS011;13585;50.864;4.406;2023-07-29T10:22:56;1.17;;;0.93;;
25731;SDS011;13585;50.864;4.406;2023-07-29T10:25:25;1.05;;;0.80;;
25731;SDS011;13585;50.864;4.406;2023-07-29T10:28:06;1.10;;;0.90;;
25731;SDS011;13585;50.864;4.406;2023-07-29T10:30:33;1.30;;;1.10;;
25731;SDS011;13585;50.864;4.406;2023-07-29T10:33:01;0.95;;;0.95;;
25731;SDS011;13585;50.864;4.406;2023-07-29T10:35:28;1.35;;;1.10;;
25731;SDS011;13585;50.864;4.406;2023-07-29T10:37:54;1.42;;;1.10;;
25731;SDS011;13585;50.864;4.406;2023-07-29T10:40:20;2.60;;;0.90;;
25731;SDS011;13585;50.864;4.406;2023-07-29T10:45:36;1.60;;;0.93;;
25731;SDS011;13585;50.864;4.406;2023-07-29T10:53:47;4.82;;;2.42;;
25731;SDS011;13585;50.864;4.406;2023-07-29T10:56:13;4.53;;;2.20;;
25731;SDS011;13585;50.864;4.406;2023-07-29T10:58:49;3.38;;;1.90;;
25731;SDS011;13585;50.864;4.406;2023-07-29T11:01:23;3.65;;;1.60;;
25731;SDS011;13585;50.864;4.406;2023-07-29T11:15:01;3.58;;;1.40;;
25731;SDS011;13585;50.864;4.406;2023-07-29T11:17:30;3.35;;;1.60;;
25731;SDS011;13585;50.864;4.406;2023-07-29T11:19:59;2.53;;;1.30;;
25731;SDS011;13585;50.864;4.406;2023-07-29T11:22:26;2.10;;;1.23;;
25731;SDS011;13585;50.864;4.406;2023-07-29T11:24:51;3.90;;;1.50;;
25731;SDS011;13585;50.864;4.406;2023-07-29T11:27:17;5.15;;;1.90;;
25731;SDS011;13585;50.864;4.406;2023-07-29T11:29:43;5.28;;;1.90;;
25731;SDS011;13585;50.864;4.406;2023-07-29T11:32:09;4.03;;;1.92;;
25731;SDS011;13585;50.864;4.406;2023-07-29T11:34:35;2.72;;;1.50;;
25731;SDS011;13585;50.864;4.406;2023-07-29T11:37:00;3.22;;;1.88;;
25731;SDS011;13585;50.864;4.406;2023-07-29T11:39:26;3.10;;;1.60;;
25731;SDS011;13585;50.864;4.406;2023-07-29T11:41:51;1.90;;;1.30;;
25731;SDS011;13585;50.864;4.406;2023-07-29T11:44:17;1.70;;;1.33;;
25731;SDS011;13585;50.864;4.406;2023-07-29T11:46:43;2.10;;;1.48;;
25731;SDS011;13585;50.864;4.406;2023-07-29T11:49:09;2.03;;;1.40;;
25731;SDS011;13585;50.864;4.406;2023-07-29T11:51:38;3.08;;;1.40;;
25731;SDS011;13585;50.864;4.406;2023-07-29T11:54:03;2.28;;;1.40;;
25731;SDS011;13585;50.864;4.406;2023-07-29T11:56:30;2.55;;;1.65;;
25731;SDS011;13585;50.864;4.406;2023-07-29T11:58:57;1.70;;;1.30;;
25731;SDS011;13585;50.864;4.406;2023-07-29T12:01:23;1.67;;;1.38;;
25731;SDS011;13585;50.864;4.406;2023-07-29T12:03:49;2.25;;;1.55;;
25731;SDS011;13585;50.864;4.406;2023-07-29T12:06:15;1.77;;;1.27;;
25731;SDS011;13585;50.864;4.406;2023-07-29T12:08:42;1.40;;;1.30;;
25731;SDS011;13585;50.864;4.406;2023-07-29T12:11:08;1.77;;;1.40;;
25731;SDS011;13585;50.864;4.406;2023-07-29T12:13:36;1.75;;;1.30;;
25731;SDS011;13585;50.864;4.406;2023-07-29T12:16:02;1.85;;;1.30;;
25731;SDS011;13585;50.864;4.406;2023-07-29T12:18:31;1.65;;;1.38;;
25731;SDS011;13585;50.864;4.406;2023-07-29T12:20:57;3.15;;;1.23;;
25731;SDS011;13585;50.864;4.406;2023-07-29T12:23:26;2.00;;;1.42;;
25731;SDS011;13585;50.864;4.406;2023-07-29T12:25:57;2.03;;;1.42;;
25731;SDS011;13585;50.864;4.406;2023-07-29T12:28:24;1.70;;;1.30;;
25731;SDS011;13585;50.864;4.406;2023-07-29T12:30:54;1.58;;;1.40;;
25731;SDS011;13585;50.864;4.406;2023-07-29T12:33:30;1.77;;;1.35;;
25731;SDS011;13585;50.864;4.406;2023-07-29T12:35:57;1.88;;;1.35;;
25731;SDS011;13585;50.864;4.406;2023-07-29T12:38:25;1.40;;;1.08;;
25731;SDS011;13585;50.864;4.406;2023-07-29T12:40:51;2.20;;;1.27;;
25731;SDS011;13585;50.864;4.406;2023-07-29T12:43:17;2.13;;;1.33;;
25731;SDS011;13585;50.864;4.406;2023-07-29T12:45:43;1.88;;;1.60;;
25731;SDS011;13585;50.864;4.406;2023-07-29T12:48:09;1.77;;;1.27;;
25731;SDS011;13585;50.864;4.406;2023-07-29T12:50:35;1.75;;;1.38;;
25731;SDS011;13585;50.864;4.406;2023-07-29T12:53:01;2.22;;;1.60;;
25731;SDS011;13585;50.864;4.406;2023-07-29T12:55:27;2.05;;;1.23;;
25731;SDS011;13585;50.864;4.406;2023-07-29T12:57:52;2.05;;;1.40;;
25731;SDS011;13585;50.864;4.406;2023-07-29T13:00:18;1.40;;;1.30;;
25731;SDS011;13585;50.864;4.406;2023-07-29T13:02:44;2.22;;;1.40;;
25731;SDS011;13585;50.864;4.406;2023-07-29T13:05:10;1.60;;;1.45;;
25731;SDS011;13585;50.864;4.406;2023-07-29T13:07:37;2.28;;;1.40;;
25731;SDS011;13585;50.864;4.406;2023-07-29T13:10:06;1.85;;;1.40;;
25731;SDS011;13585;50.864;4.406;2023-07-29T13:12:33;1.90;;;1.30;;
25731;SDS011;13585;50.864;4.406;2023-07-29T13:14:58;2.13;;;1.30;;
25731;SDS011;13585;50.864;4.406;2023-07-29T13:17:24;1.85;;;1.20;;
25731;SDS011;13585;50.864;4.406;2023-07-29T13:19:50;2.55;;;1.67;;
25731;SDS011;13585;50.864;4.406;2023-07-29T13:22:15;1.77;;;1.50;;
25731;SDS011;13585;50.864;4.406;2023-07-29T13:24:41;2.38;;;1.52;;
25731;SDS011;13585;50.864;4.406;2023-07-29T13:27:07;2.20;;;1.45;;
25731;SDS011;13585;50.864;4.406;2023-07-29T13:29:32;3.10;;;1.55;;
25731;SDS011;13585;50.864;4.406;2023-07-29T13:31:58;1.50;;;1.27;;
25731;SDS011;13585;50.864;4.406;2023-07-29T13:34:23;1.45;;;1.35;;
25731;SDS011;13585;50.864;4.406;2023-07-29T13:36:49;1.67;;;1.40;;
25731;SDS011;13585;50.864;4.406;2023-07-29T13:39:15;2.22;;;1.65;;
25731;SDS011;13585;50.864;4.406;2023-07-29T13:41:41;2.67;;;1.60;;
25731;SDS011;13585;50.864;4.406;2023-07-29T13:44:07;1.60;;;1.40;;
25731;SDS011;13585;50.864;4.406;2023-07-29T13:46:32;1.95;;;1.40;;
25731;SDS011;13585;50.864;4.406;2023-07-29T13:48:58;1.40;;;1.30;;
25731;SDS011;13585;50.864;4.406;2023-07-29T13:51:23;2.10;;;1.58;;
25731;SDS011;13585;50.864;4.406;2023-07-29T13:53:49;1.50;;;1.40;;
25731;SDS011;13585;50.864;4.406;2023-07-29T13:56:15;2.13;;;1.42;;
25731;SDS011;13585;50.864;4.406;2023-07-29T13:58:40;1.73;;;1.17;;
25731;SDS011;13585;50.864;4.406;2023-07-29T14:01:06;1.58;;;1.45;;
25731;SDS011;13585;50.864;4.406;2023-07-29T14:03:32;2.88;;;1.42;;
25731;SDS011;13585;50.864;4.406;2023-07-29T14:05:57;1.40;;;1.30;;
25731;SDS011;13585;50.864;4.406;2023-07-29T14:08:23;1.50;;;1.40;;
25731;SDS011;13585;50.864;4.406;2023-07-29T14:10:49;2.05;;;1.50;;
25731;SDS011;13585;50.864;4.406;2023-07-29T14:13:15;2.58;;;1.60;;
25731;SDS011;13585;50.864;4.406;2023-07-29T14:15:40;1.52;;;1.20;;
25731;SDS011;13585;50.864;4.406;2023-07-29T14:18:06;2.15;;;1.33;;
25731;SDS011;13585;50.864;4.406;2023-07-29T14:20:32;1.73;;;1.63;;
25731;SDS011;13585;50.864;4.406;2023-07-29T14:22:58;1.63;;;1.52;;
25731;SDS011;13585;50.864;4.406;2023-07-29T14:25:23;1.92;;;1.35;;
25731;SDS011;13585;50.864;4.406;2023-07-29T14:27:49;1.52;;;1.42;;
25731;SDS011;13585;50.864;4.406;2023-07-29T14:30:15;1.70;;;1.60;;
25731;SDS011;13585;50.864;4.406;2023-07-29T14:32:41;3.00;;;1.65;;
25731;SDS011;13585;50.864;4.406;2023-07-29T14:35:06;2.10;;;1.60;;
25731;SDS011;13585;50.864;4.406;2023-07-29T14:37:33;1.50;;;1.40;;
25731;SDS011;13585;50.864;4.406;2023-07-29T14:39:59;1.65;;;1.42;;
25731;SDS011;13585;50.864;4.406;2023-07-29T14:42:25;2.08;;;1.40;;
25731;SDS011;13585;50.864;4.406;2023-07-29T14:44:51;2.08;;;1.42;;
25731;SDS011;13585;50.864;4.406;2023-07-29T14:47:16;1.65;;;1.55;;
25731;SDS011;13585;50.864;4.406;2023-07-29T14:49:43;1.75;;;1.30;;
25731;SDS011;13585;50.864;4.406;2023-07-29T14:52:09;1.67;;;1.30;;
25731;SDS011;13585;50.864;4.406;2023-07-29T14:54:35;1.20;;;1.10;;
25731;SDS011;13585;50.864;4.406;2023-07-29T14:57:01;1.77;;;1.40;;
25731;SDS011;13585;50.864;4.406;2023-07-29T14:59:26;1.83;;;1.30;;
25731;SDS011;13585;50.864;4.406;2023-07-29T15:01:52;1.75;;;1.27;;
25731;SDS011;13585;50.864;4.406;2023-07-29T15:04:18;1.90;;;1.35;;
25731;SDS011;13585;50.864;4.406;2023-07-29T15:06:43;1.65;;;1.30;;
25731;SDS011;13585;50.864;4.406;2023-07-29T15:09:09;1.35;;;1.25;;